Green Hill, Rhode Island
Current Conditions -  °F | °C
As of 10:53 PM on Monday 22 Dec 2014 (Local Time) from KWST Reporting Station
Overcast Overcast  
Wind Chill: 39°   Ceiling: 3800
Heat Index: 45°   Visibility: 10mi
Dew Point: 39°   Wind: 14mph
Humidity: 80%   Direction: 80°E
Pressure: 30.26"   Gusts: 22mph
Location:  41.4261°N, 71.5353°W
Report Text: KWST 230353Z AUTO 08012G19KT 10SM OVC038 07/04 A3026 RMK AO2 SLP246 T00720039
Loading
Personal Weather Stations






























Interactive Weather Map New forecast layout! Learn more

10-Day Weather Forecast

Advertisements
Track Severe Weather on mobile